Time;durP1;ratioP1;P1;durP2;ratioP2;P2;SDS_P1;SDS_P2;PMS_P1;PMS_P2;Temp;Humidity;BMP_temperature;BMP_pressure;BME280_temperature;BME280_humidity;BME280_pressure;Samples;Min_cycle;Max_cycle;Signal;HPM_P1;HPM_P2
2021/12/17 00:00:17;;;;;;;;;40.75;35.00;;;;;11.72;61.19;103324.13;5089154;27;45311;-64
2021/12/17 00:05:14;;;;;;;;;38.00;34.00;;;;;11.70;61.30;103328.56;5079752;28;45417;-64
2021/12/17 00:07:40;;;;;;;;;42.75;35.75;;;;;11.71;61.51;103324.09;5079869;28;45648;-64
2021/12/17 00:10:13;;;;;;;;;40.50;34.25;;;;;11.72;61.44;103326.78;5070979;28;45418;-64
2021/12/17 00:12:39;;;;;;;;;41.00;35.00;;;;;11.68;61.47;103316.97;5066606;28;45332;-64
2021/12/17 00:15:06;;;;;;;;;39.50;35.00;;;;;11.65;61.50;103316.97;5079621;28;45382;-64
2021/12/17 00:17:36;;;;;;;;;35.75;32.25;;;;;11.67;61.46;103317.84;5084196;27;45418;-64
2021/12/17 00:40:08;;;;;;;;;43.00;38.00;;;;;11.68;61.60;103316.97;5079641;28;45284;-64
2021/12/17 00:50:10;;;;;;;;;39.50;34.25;;;;;11.63;62.11;103302.69;5082519;27;45927;-64
2021/12/17 00:52:38;;;;;;;;;44.25;37.00;;;;;11.63;61.98;103302.69;5081964;28;45301;-64
2021/12/17 00:55:05;;;;;;;;;47.00;38.25;;;;;11.56;61.87;103282.13;5082697;28;45503;-64
2021/12/17 00:57:38;;;;;;;;;35.25;31.00;;;;;11.62;62.06;103296.41;5082175;28;45422;-64
2021/12/17 01:00:09;;;;;;;;;43.75;36.75;;;;;11.61;61.97;103289.31;5082578;28;45671;-64
2021/12/17 01:02:36;;;;;;;;;41.00;35.25;;;;;11.61;62.04;103291.97;5082429;28;45355;-64
2021/12/17 01:05:07;;;;;;;;;46.25;38.00;;;;;11.61;62.09;103296.41;5082647;28;45485;-64
2021/12/17 01:07:35;;;;;;;;;40.50;35.75;;;;;11.61;62.18;103294.66;5080990;27;45385;-64
2021/12/17 01:10:02;;;;;;;;;28.50;27.50;;;;;11.59;62.05;103288.38;5074964;28;45384;-64
2021/12/17 01:12:28;;;;;;;;;43.50;37.00;;;;;11.56;62.08;103296.41;5081230;28;45399;-64
2021/12/17 01:14:54;;;;;;;;;46.00;38.25;;;;;11.58;62.03;103297.31;5082418;28;45459;-64
2021/12/17 01:17:22;;;;;;;;;39.75;36.00;;;;;11.56;62.21;103293.75;5081850;28;45319;-64
2021/12/17 01:25:21;;;;;;;;;46.00;37.25;;;;;11.60;62.28;103294.63;5078617;28;45398;-64
2021/12/17 01:35:59;;;;;;;;;40.75;35.50;;;;;11.50;61.93;103293.69;5082054;28;45348;-64
2021/12/17 01:43:22;;;;;;;;;46.00;39.25;;;;;11.49;62.24;103290.16;5078890;28;45426;-64
2021/12/17 01:45:47;;;;;;;;;36.75;34.25;;;;;11.49;62.23;103289.22;5075748;28;45449;-64
2021/12/17 01:48:19;;;;;;;;;52.00;41.00;;;;;11.49;62.15;103281.22;5081122;28;46258;-64
2021/12/17 01:56:36;;;;;;;;;46.50;35.75;;;;;11.42;62.14;103287.41;5060496;28;45252;-64
2021/12/17 01:59:22;;;;;;;;;43.25;37.50;;;;;11.37;62.34;103284.72;5061175;28;47122;-64
2021/12/17 02:01:49;;;;;;;;;45.50;38.00;;;;;11.33;61.86;103288.28;5061159;28;45326;-64
2021/12/17 02:04:14;;;;;;;;;39.75;33.00;;;;;11.30;62.05;103282.91;5061329;28;45321;-64
2021/12/17 02:06:40;;;;;;;;;44.50;37.00;;;;;11.30;62.19;103286.47;5061452;28;45288;-64
2021/12/17 02:09:39;;;;;;;;;42.00;36.00;;;;;11.31;62.41;103285.59;5060754;28;46233;-64
2021/12/17 02:12:32;;;;;;;;;40.75;36.00;;;;;11.31;61.98;103285.59;5055788;28;45306;-64
2021/12/17 02:31:59;;;;;;;;;40.00;36.00;;;;;11.03;62.43;103292.56;5061611;27;45306;-64
2021/12/17 02:37:13;;;;;;;;;46.50;38.50;;;;;11.00;62.29;103289.84;5060573;28;45583;-64
2021/12/17 02:40:03;;;;;;;;;28.25;25.75;;;;;10.94;62.55;103288.06;5059968;28;45295;-64
2021/12/17 02:47:39;;;;;;;;;50.50;37.75;;;;;10.93;62.94;103280.91;5059936;28;45639;-64
2021/12/17 02:50:07;;;;;;;;;40.50;34.75;;;;;10.91;62.83;103276.44;5060321;28;45314;-64
2021/12/17 02:52:36;;;;;;;;;44.75;36.25;;;;;10.90;63.08;103261.28;5065691;28;45478;-64
2021/12/17 02:55:05;;;;;;;;;40.75;37.00;;;;;10.94;62.81;103277.38;5080876;28;45622;-64
2021/12/17 02:57:31;;;;;;;;;44.50;36.00;;;;;10.93;62.94;103277.34;5080476;28;45380;-64
2021/12/17 02:59:57;;;;;;;;;37.75;34.00;;;;;10.93;62.68;103274.69;5080804;28;45288;-64
2021/12/17 03:02:26;;;;;;;;;43.50;34.25;;;;;10.94;62.36;103271.09;5082773;27;45311;-64
2021/12/17 03:04:51;;;;;;;;;37.00;35.25;;;;;10.88;62.63;103266.63;5080841;28;45596;-64
2021/12/17 03:07:17;;;;;;;;;40.00;37.50;;;;;10.82;62.44;103266.56;5080383;28;45184;-64
2021/12/17 03:12:30;;;;;;;;;38.25;32.00;;;;;10.81;62.96;103264.81;5076322;28;45459;-64
2021/12/17 03:15:14;;;;;;;;;37.75;33.25;;;;;10.81;63.06;103262.13;5080670;28;45624;-64
2021/12/17 03:18:14;;;;;;;;;34.25;33.25;;;;;10.84;62.90;103251.47;5068878;28;45370;-64
2021/12/17 03:25:56;;;;;;;;;39.25;30.50;;;;;10.93;62.83;103261.31;5074009;28;45243;-64
2021/12/17 03:28:22;;;;;;;;;37.50;34.25;;;;;10.93;62.71;103254.19;5080311;28;45398;-64
2021/12/17 03:30:48;;;;;;;;;36.25;33.75;;;;;10.91;62.33;103253.28;5080168;28;45257;-64
2021/12/17 03:33:13;;;;;;;;;46.00;37.25;;;;;10.90;62.26;103261.28;5079941;28;45559;-64
2021/12/17 03:35:39;;;;;;;;;37.50;32.25;;;;;10.81;62.79;103258.53;5080151;28;45397;-64
2021/12/17 03:38:05;;;;;;;;;37.25;33.75;;;;;10.74;62.50;103253.19;5077655;27;45323;-64
2021/12/17 03:40:32;;;;;;;;;42.25;33.75;;;;;10.72;63.08;103254.91;5080011;28;45553;-64
2021/12/17 03:43:03;;;;;;;;;36.00;32.00;;;;;10.65;62.74;103250.44;5079719;27;46170;-64
2021/12/17 03:45:28;;;;;;;;;39.75;35.00;;;;;10.77;62.92;103275.44;5069346;27;45286;-64
2021/12/17 03:47:54;;;;;;;;;36.00;32.75;;;;;10.75;63.14;103264.75;5080049;28;45373;-64
2021/12/17 03:50:21;;;;;;;;;43.25;34.75;;;;;10.77;62.74;103270.09;5079830;27;45312;-64
2021/12/17 03:52:46;;;;;;;;;35.00;34.00;;;;;10.74;62.64;103271.88;5079859;28;45402;-64
2021/12/17 03:55:12;;;;;;;;;34.50;33.50;;;;;10.72;62.96;103254.91;5083996;27;46090;-64
2021/12/17 03:57:37;;;;;;;;;41.25;36.25;;;;;10.75;62.75;103267.41;5079744;27;45252;-64
2021/12/17 04:00:10;;;;;;;;;47.00;38.25;;;;;10.80;62.66;103275.47;5079746;28;45224;-64
2021/12/17 04:02:35;;;;;;;;;41.00;33.50;;;;;10.77;62.72;103265.66;5079697;27;45466;-64
2021/12/17 04:05:01;;;;;;;;;34.50;30.25;;;;;10.75;62.73;103273.66;5079861;28;45244;-64
2021/12/17 04:07:27;;;;;;;;;36.75;33.25;;;;;10.75;62.79;103272.75;5079662;28;45351;-64
2021/12/17 04:09:52;;;;;;;;;43.75;36.50;;;;;10.74;62.92;103276.31;5081323;27;45215;-64
2021/12/17 04:12:20;;;;;;;;;36.50;33.25;;;;;10.73;62.60;103279.88;5081843;27;45403;-64
2021/12/17 04:14:48;;;;;;;;;35.50;32.00;;;;;10.59;62.84;103252.16;5079817;28;45618;-64
2021/12/17 04:17:22;;;;;;;;;34.75;33.00;;;;;10.61;63.08;103271.75;5079736;27;45351;-64
2021/12/17 04:19:48;;;;;;;;;35.75;32.75;;;;;10.61;63.63;103266.41;5079065;28;45373;-64
2021/12/17 04:22:13;;;;;;;;;33.00;30.25;;;;;10.62;63.38;103266.41;5083074;28;45337;-64
2021/12/17 04:24:39;;;;;;;;;35.75;32.25;;;;;10.66;63.23;103270.94;5083253;28;45346;-64
2021/12/17 04:27:06;;;;;;;;;34.00;29.50;;;;;10.70;63.15;103264.72;5081186;27;45318;-64
2021/12/17 04:29:32;;;;;;;;;40.00;34.25;;;;;10.73;63.29;103266.53;5083187;28;45531;-64
2021/12/17 04:31:57;;;;;;;;;38.00;33.75;;;;;10.74;63.23;103257.59;5069764;27;47216;-64
2021/12/17 04:34:23;;;;;;;;;37.25;33.75;;;;;10.72;63.31;103257.59;5083007;27;45289;-64
2021/12/17 04:36:51;;;;;;;;;30.25;29.75;;;;;10.75;63.79;103264.75;5069780;28;45161;-64
2021/12/17 04:39:18;;;;;;;;;32.00;32.00;;;;;10.81;63.14;103261.22;5082828;27;45385;-64
2021/12/17 04:41:55;;;;;;;;;41.50;34.50;;;;;10.84;63.27;103253.22;5082361;27;46973;-64
2021/12/17 04:44:25;;;;;;;;;34.75;33.00;;;;;10.84;63.62;103256.81;5081193;27;45479;-64
2021/12/17 04:57:26;;;;;;;;;31.75;31.00;;;;;10.85;63.04;103252.34;5082326;28;45391;-64
2021/12/17 04:59:51;;;;;;;;;33.75;31.50;;;;;10.85;63.46;103252.34;5080846;27;45237;-64
2021/12/17 05:02:18;;;;;;;;;35.00;31.25;;;;;10.89;62.99;103264.84;5082139;27;46279;-64
2021/12/17 05:04:44;;;;;;;;;34.75;26.25;;;;;10.86;63.50;103257.72;5082226;28;45366;-64
2021/12/17 05:07:12;;;;;;;;;35.25;31.25;;;;;10.87;63.28;103253.25;5081950;28;45227;-64
2021/12/17 05:10:31;;;;;;;;;39.25;32.25;;;;;10.92;63.29;103262.19;5082209;28;45535;-64
2021/12/17 05:20:47;;;;;;;;;33.00;31.50;;;;;10.98;63.72;103258.69;5078771;28;45420;-64
2021/12/17 05:23:13;;;;;;;;;33.75;28.50;;;;;10.99;63.57;103261.34;5079377;28;45355;-64
2021/12/17 05:25:38;;;;;;;;;29.50;27.25;;;;;11.00;63.42;103259.56;5081653;28;45459;-64
2021/12/17 05:28:04;;;;;;;;;33.25;32.25;;;;;11.03;63.43;103263.16;5082477;28;45257;-64
2021/12/17 05:30:32;;;;;;;;;30.50;29.00;;;;;11.05;63.28;103260.50;5080469;27;45823;-64
2021/12/17 05:32:58;;;;;;;;;35.25;31.75;;;;;11.06;63.43;103260.50;5081438;28;46290;-64
2021/12/17 05:35:23;;;;;;;;;33.25;30.25;;;;;11.07;63.32;103253.38;5082173;28;45185;-64
2021/12/17 05:37:49;;;;;;;;;27.75;25.00;;;;;11.07;63.39;103251.59;5081163;28;45465;-64
2021/12/17 05:40:15;;;;;;;;;31.25;30.75;;;;;11.09;63.36;103259.63;5081581;28;45226;-64
2021/12/17 05:42:42;;;;;;;;;33.50;28.25;;;;;11.08;63.46;103250.72;5081683;28;47254;-64
2021/12/17 05:45:21;;;;;;;;;39.25;35.25;;;;;11.09;63.40;103259.63;5081658;27;45737;-64
2021/12/17 05:47:46;;;;;;;;;33.50;29.50;;;;;11.06;63.45;103251.56;5081844;28;45337;-64
2021/12/17 05:50:11;;;;;;;;;30.00;29.50;;;;;11.02;63.38;103253.34;5079646;27;46115;-64
2021/12/17 05:52:37;;;;;;;;;32.75;31.50;;;;;10.96;63.51;103249.72;5081270;28;45215;-64
2021/12/17 05:55:04;;;;;;;;;28.25;20.50;;;;;10.92;63.35;103251.50;5081234;27;45164;-64
2021/12/17 05:57:29;;;;;;;;;30.00;27.75;;;;;10.81;63.58;103248.78;5081540;27;45338;-64
2021/12/17 05:59:54;;;;;;;;;31.25;26.75;;;;;10.84;64.24;103254.13;5081524;27;45587;-64
2021/12/17 06:02:20;;;;;;;;;34.75;34.00;;;;;10.87;63.94;103254.13;5081633;27;45214;-64
2021/12/17 06:04:45;;;;;;;;;28.50;27.75;;;;;10.86;63.77;103251.44;5079154;27;45232;-64
2021/12/17 06:07:11;;;;;;;;;31.50;26.75;;;;;10.85;64.43;103250.56;5081186;28;45474;-64
2021/12/17 06:09:37;;;;;;;;;29.00;24.75;;;;;10.83;64.40;103247.00;5081735;28;45480;-64
2021/12/17 06:12:03;;;;;;;;;27.75;27.25;;;;;10.86;64.23;103255.03;5080571;28;47012;-64
2021/12/17 06:14:29;;;;;;;;;29.00;25.75;;;;;10.82;64.54;103252.31;5081429;28;45281;-64
2021/12/17 06:16:55;;;;;;;;;33.25;32.50;;;;;10.81;64.13;103258.53;5079683;27;45640;-64
2021/12/17 06:19:20;;;;;;;;;28.50;25.75;;;;;10.77;64.58;103244.28;5081370;28;45441;-64
2021/12/17 06:21:48;;;;;;;;;28.25;23.25;;;;;10.75;64.92;103251.41;5071781;28;45528;-64
2021/12/17 06:24:14;;;;;;;;;37.50;32.00;;;;;10.71;65.09;103255.81;5079115;28;45272;-64
2021/12/17 06:26:40;;;;;;;;;27.25;26.50;;;;;10.75;64.88;103251.41;5078570;28;45446;-64
2021/12/17 06:29:05;;;;;;;;;31.50;28.75;;;;;10.73;64.49;103247.81;5081301;28;45535;-64
2021/12/17 06:31:31;;;;;;;;;26.50;25.50;;;;;10.66;64.94;103244.22;5077136;28;46256;-64
2021/12/17 06:33:56;;;;;;;;;26.75;26.00;;;;;10.65;64.82;103253.09;5079202;27;45522;-64
2021/12/17 06:36:21;;;;;;;;;18.00;14.50;;;;;10.54;65.43;103249.44;5080909;28;45422;-64
2021/12/17 06:38:47;;;;;;;;;26.25;23.25;;;;;10.59;65.74;103252.16;5080861;27;45377;-64
2021/12/17 06:41:12;;;;;;;;;28.25;27.25;;;;;10.60;65.70;103256.63;5080184;27;46154;-64
2021/12/17 06:43:40;;;;;;;;;23.50;22.25;;;;;10.63;65.26;103262.00;5080426;27;45664;-64
2021/12/17 06:49:21;;;;;;;;;26.75;24.00;;;;;10.62;65.85;103265.53;5012297;28;45454;-64
2021/12/17 06:54:46;;;;;;;;;30.25;27.50;;;;;10.62;65.97;103246.84;5080799;28;45390;-68
2021/12/17 07:33:46;;;;;;;;;29.00;27.00;;;;;10.79;66.11;103269.22;5068957;28;46079;-64
2021/12/17 07:36:17;;;;;;;;;32.50;27.00;;;;;10.83;66.25;103273.72;5066776;28;45684;-64
2021/12/17 07:38:50;;;;;;;;;29.75;26.00;;;;;10.81;65.95;103266.56;5071504;28;47020;-64
2021/12/17 07:41:16;;;;;;;;;23.75;19.75;;;;;10.74;66.06;103269.22;5067610;28;45486;-64
2021/12/17 07:43:52;;;;;;;;;19.75;18.50;;;;;10.74;66.56;103284.31;5068581;28;46362;-64
2021/12/17 07:46:20;;;;;;;;;31.00;24.25;;;;;10.71;65.99;103285.22;5077767;28;45429;-63
2021/12/17 07:48:45;;;;;;;;;24.75;24.00;;;;;10.67;66.23;103282.50;5066168;28;45506;-63
2021/12/17 07:51:13;;;;;;;;;25.00;22.00;;;;;10.64;66.16;103279.78;5068376;28;45626;-63
2021/12/17 07:53:40;;;;;;;;;26.75;24.00;;;;;10.66;66.65;103291.38;5068372;28;46119;-63
2021/12/17 07:56:07;;;;;;;;;19.75;18.75;;;;;10.68;66.38;103286.97;5069142;28;45759;-63
2021/12/17 07:58:32;;;;;;;;;22.00;19.00;;;;;10.71;66.42;103279.88;5080098;27;45472;-63
2021/12/17 08:00:59;;;;;;;;;30.75;25.50;;;;;10.66;66.30;103281.63;5076897;27;45435;-63
2021/12/17 08:03:24;;;;;;;;;31.00;25.75;;;;;10.60;67.02;103276.22;5081814;27;45756;-64
2021/12/17 08:05:51;;;;;;;;;23.00;23.00;;;;;10.65;67.12;103281.59;5084163;27;45470;-64
2021/12/17 08:08:17;;;;;;;;;29.25;28.00;;;;;10.63;67.24;103270.00;5079319;27;45594;-64
2021/12/17 08:10:43;;;;;;;;;22.75;22.75;;;;;10.59;67.44;103270.84;5082677;27;45448;-64
2021/12/17 08:13:16;;;;;;;;;21.25;18.25;;;;;10.63;67.06;103278.03;5087025;27;46213;-64
2021/12/17 08:15:49;;;;;;;;;25.75;22.75;;;;;10.70;67.30;103287.88;5084444;27;45942;-64
2021/12/17 08:28:24;;;;;;;;;27.50;27.50;;;;;10.75;67.44;103284.34;5077051;28;45965;-63
2021/12/17 08:30:50;;;;;;;;;31.50;28.00;;;;;10.77;67.35;103283.47;5075463;28;45893;-68
2021/12/17 08:33:20;;;;;;;;;32.00;26.50;;;;;10.82;67.18;103301.31;5083488;27;46524;-64
2021/12/17 08:35:45;;;;;;;;;32.25;31.50;;;;;10.76;66.99;103290.59;5079174;28;45295;-64
2021/12/17 08:38:11;;;;;;;;;31.25;25.50;;;;;10.80;66.90;103299.53;5079179;27;45165;-64
2021/12/17 08:40:36;;;;;;;;;25.75;24.25;;;;;10.78;67.56;103287.94;5078455;28;45382;-64
2021/12/17 08:43:03;;;;;;;;;31.00;24.50;;;;;10.80;67.12;103299.53;5077749;28;46065;-64
2021/12/17 08:45:29;;;;;;;;;23.25;19.00;;;;;10.78;67.53;103296.84;5066513;27;45415;-64
2021/12/17 08:47:54;;;;;;;;;26.75;25.75;;;;;10.77;67.62;103294.16;5082231;27;45487;-64
2021/12/17 08:50:19;;;;;;;;;27.50;24.50;;;;;10.73;67.57;103280.75;5078499;28;45326;-64
2021/12/17 08:52:46;;;;;;;;;28.00;26.25;;;;;10.78;67.78;103287.94;5087009;27;46067;-64
2021/12/17 08:55:12;;;;;;;;;32.75;28.50;;;;;10.71;67.07;103292.34;5078748;28;45325;-64
2021/12/17 08:57:39;;;;;;;;;29.00;28.75;;;;;10.68;67.52;103290.53;5080020;27;45290;-64
2021/12/17 09:00:07;;;;;;;;;30.50;25.25;;;;;10.68;67.80;103289.63;5090840;27;45535;-64
2021/12/17 09:02:36;;;;;;;;;29.50;25.75;;;;;10.69;67.92;103302.09;5078777;28;45924;-66
2021/12/17 09:05:05;;;;;;;;;35.25;31.50;;;;;10.63;67.63;103294.94;5079176;28;45589;-65
2021/12/17 09:07:30;;;;;;;;;30.00;28.25;;;;;10.65;67.64;103302.97;5080292;28;45255;-65
2021/12/17 09:09:56;;;;;;;;;29.00;26.50;;;;;10.63;67.88;103299.41;5084628;27;45530;-65
2021/12/17 09:12:21;;;;;;;;;24.25;24.00;;;;;10.63;68.21;103297.59;5066400;27;47307;-65
2021/12/17 09:14:47;;;;;;;;;30.50;23.25;;;;;10.66;67.90;103307.41;5082072;28;45379;-64
2021/12/17 09:17:12;;;;;;;;;31.75;30.25;;;;;10.65;67.85;103309.19;5082435;28;45338;-65
2021/12/17 09:19:38;;;;;;;;;30.25;28.75;;;;;10.67;67.82;103312.75;5082207;27;45362;-64
2021/12/17 09:22:03;;;;;;;;;27.25;25.75;;;;;10.69;67.77;103302.09;5081548;27;45400;-64
2021/12/17 09:24:29;;;;;;;;;31.75;28.25;;;;;10.73;68.16;103307.47;5081608;27;45375;-65
2021/12/17 09:26:55;;;;;;;;;25.50;22.75;;;;;10.77;68.19;103313.75;5079601;28;45543;-64
2021/12/17 09:29:20;;;;;;;;;35.25;31.00;;;;;10.78;68.20;103309.31;5081034;27;45490;-64
2021/12/17 09:31:46;;;;;;;;;32.25;27.00;;;;;10.81;68.08;103315.56;5081078;28;46116;-64
2021/12/17 09:34:11;;;;;;;;;29.75;26.25;;;;;10.85;67.65;103321.81;5081091;27;45623;-64
2021/12/17 09:36:36;;;;;;;;;22.75;22.50;;;;;10.88;67.84;103327.19;5081154;28;45288;-64
2021/12/17 09:39:03;;;;;;;;;21.25;21.00;;;;;10.94;67.86;103332.56;5073246;27;45307;-65
2021/12/17 09:41:28;;;;;;;;;29.75;26.00;;;;;10.84;67.50;103314.69;5071525;28;46508;-64
2021/12/17 09:43:54;;;;;;;;;30.75;26.25;;;;;10.86;67.74;103332.53;5077644;28;45219;-64
2021/12/17 09:46:19;;;;;;;;;26.50;21.50;;;;;10.86;67.82;103335.19;5080909;28;45435;-64
2021/12/17 09:48:49;;;;;;;;;36.00;32.50;;;;;10.87;67.99;103334.31;5080817;28;45403;-64
2021/12/17 09:51:18;;;;;;;;;25.75;25.25;;;;;10.91;67.78;103348.59;5081002;28;46424;-64
2021/12/17 09:53:45;;;;;;;;;31.50;26.00;;;;;10.86;67.58;103342.31;5080674;27;45429;-64
2021/12/17 09:56:10;;;;;;;;;28.00;25.75;;;;;10.87;67.82;103349.44;5080401;28;45240;-64
2021/12/17 09:58:36;;;;;;;;;37.25;29.50;;;;;10.91;68.19;103341.47;5080770;27;45369;-64
2021/12/17 10:01:02;;;;;;;;;27.50;26.25;;;;;10.91;67.77;103336.13;5080561;27;45395;-64
2021/12/17 10:03:27;;;;;;;;;30.50;26.00;;;;;10.93;67.78;103336.16;5080899;27;45498;-65
2021/12/17 10:05:53;;;;;;;;;41.25;30.50;;;;;10.94;67.59;103338.84;5080338;28;45377;-64
2021/12/17 10:08:21;;;;;;;;;34.00;31.75;;;;;11.00;67.83;103348.66;5078801;28;45426;-63
2021/12/17 10:10:57;;;;;;;;;31.25;27.00;;;;;10.99;67.55;103344.19;5057968;28;46576;-64
2021/12/17 10:13:26;;;;;;;;;29.00;26.00;;;;;11.03;67.89;103334.44;5068780;28;45473;-64
2021/12/17 10:15:56;;;;;;;;;26.00;23.00;;;;;11.07;67.84;103333.56;5079926;27;45509;-64
2021/12/17 10:18:42;;;;;;;;;31.50;28.75;;;;;11.06;68.05;103327.34;5062244;28;45384;-64
2021/12/17 10:21:10;;;;;;;;;37.75;31.00;;;;;11.07;68.15;103322.88;5062498;28;46459;-64
2021/12/17 10:23:40;;;;;;;;;37.25;32.50;;;;;11.10;67.59;103328.25;5080855;28;45700;-64
2021/12/17 10:26:10;;;;;;;;;36.25;32.25;;;;;11.05;67.88;103316.63;5079426;27;45695;-65
2021/12/17 10:28:36;;;;;;;;;36.50;33.50;;;;;11.04;67.82;103307.72;5080558;28;45530;-64
2021/12/17 10:31:02;;;;;;;;;35.25;32.50;;;;;11.08;67.68;103311.31;5080670;27;46341;-64
2021/12/17 10:33:28;;;;;;;;;36.50;30.00;;;;;11.02;67.59;103298.78;5080373;28;45498;-64
2021/12/17 10:35:57;;;;;;;;;31.00;31.00;;;;;11.07;67.92;103310.38;5080090;28;45521;-64
2021/12/17 10:38:25;;;;;;;;;37.25;33.75;;;;;11.07;67.87;103305.03;5063476;28;45523;-64
2021/12/17 10:41:03;;;;;;;;;36.25;33.00;;;;;11.06;68.02;103303.28;5079124;28;45508;-64
2021/12/17 10:43:37;;;;;;;;;39.00;35.00;;;;;11.09;67.92;103294.38;5080427;27;45384;-64
2021/12/17 10:46:20;;;;;;;;;29.50;27.25;;;;;11.12;67.55;103297.06;5080159;27;45391;-64
2021/12/17 10:54:04;;;;;;;;;34.50;31.25;;;;;11.03;67.67;103279.19;5067347;28;45455;-64
2021/12/17 10:56:46;;;;;;;;;25.25;23.75;;;;;11.02;67.90;103269.38;5079313;28;45418;-64
2021/12/17 10:59:18;;;;;;;;;35.00;28.00;;;;;11.01;67.81;103270.28;5080375;28;45391;-64
2021/12/17 11:01:54;;;;;;;;;34.75;30.00;;;;;11.03;68.11;103260.47;5080210;28;45516;-64
2021/12/17 11:04:29;;;;;;;;;34.00;32.25;;;;;11.08;67.88;103256.06;5080214;28;45430;-64
2021/12/17 11:07:04;;;;;;;;;37.25;34.00;;;;;11.08;67.83;103268.53;5065946;28;45736;-64
2021/12/17 11:09:57;;;;;;;;;37.00;33.50;;;;;11.05;67.56;103263.16;5080051;28;45351;-63
2021/12/17 11:12:23;;;;;;;;;36.50;33.00;;;;;10.99;67.70;103266.69;5079880;28;46063;-65
2021/12/17 11:14:49;;;;;;;;;34.75;31.75;;;;;10.99;68.27;103249.75;5079930;27;45637;-65
2021/12/17 11:17:18;;;;;;;;;33.00;31.25;;;;;11.04;67.80;103246.25;5079066;28;45506;-65
2021/12/17 11:19:44;;;;;;;;;44.75;36.50;;;;;11.09;67.49;103248.91;5079816;27;45624;-65
2021/12/17 11:22:10;;;;;;;;;34.00;32.00;;;;;11.08;68.02;103245.38;5080001;28;47144;-65
2021/12/17 11:24:37;;;;;;;;;41.75;33.50;;;;;11.05;67.50;103225.75;5079885;28;45434;-64
2021/12/17 11:27:05;;;;;;;;;44.50;39.25;;;;;11.07;67.58;103226.66;5078699;27;45529;-64
2021/12/17 11:29:31;;;;;;;;;42.75;35.00;;;;;11.09;67.57;103222.19;5079212;28;45544;-64
2021/12/17 11:31:59;;;;;;;;;41.25;35.75;;;;;11.11;67.38;103215.97;5079670;28;45418;-65
2021/12/17 11:34:26;;;;;;;;;36.00;31.00;;;;;11.08;67.14;103217.75;5079847;28;45609;-63
2021/12/17 11:36:52;;;;;;;;;38.00;34.75;;;;;11.07;67.18;103222.19;5078572;28;45395;-64
2021/12/17 11:39:30;;;;;;;;;42.00;36.00;;;;;11.09;67.26;103217.75;5071782;28;45591;-64
2021/12/17 11:42:18;;;;;;;;;33.75;29.75;;;;;11.10;67.26;103224.88;5078090;27;46039;-64
2021/12/17 11:44:53;;;;;;;;;48.00;40.75;;;;;11.12;67.27;103228.44;5080255;28;45260;-64
2021/12/17 11:47:19;;;;;;;;;60.50;48.25;;;;;11.10;66.53;103214.19;5079665;28;45711;-64
2021/12/17 11:49:49;;;;;;;;;63.00;51.75;;;;;11.05;67.13;103213.28;5080037;28;45332;-64
2021/12/17 11:52:16;;;;;;;;;76.75;58.00;;;;;11.03;67.28;103219.50;5079722;27;46382;-64
2021/12/17 11:54:41;;;;;;;;;45.00;37.75;;;;;11.01;66.84;103214.16;5080304;28;45329;-64
2021/12/17 11:57:12;;;;;;;;;51.25;40.00;;;;;11.00;67.07;103216.81;5079656;28;45352;-64
2021/12/17 11:59:41;;;;;;;;;51.25;41.50;;;;;11.01;66.92;103208.81;5080005;28;45770;-64
2021/12/17 12:02:22;;;;;;;;;44.50;37.50;;;;;11.04;66.92;103211.50;5079981;28;46432;-64
2021/12/17 12:05:02;;;;;;;;;34.00;29.25;;;;;11.10;66.85;103206.16;5079478;28;45715;-64
2021/12/17 12:07:28;;;;;;;;;27.00;22.75;;;;;11.16;66.49;103212.41;5080156;28;45389;-64
2021/12/17 12:10:04;;;;;;;;;35.50;32.25;;;;;11.12;66.25;103212.41;5079726;28;45218;-64
2021/12/17 12:12:34;;;;;;;;;35.00;32.00;;;;;11.10;66.25;103206.16;5079590;28;46314;-64
2021/12/17 12:15:22;;;;;;;;;41.25;35.25;;;;;11.04;66.28;103195.47;5072201;27;45453;-64
2021/12/17 12:17:57;;;;;;;;;41.25;36.50;;;;;11.04;66.41;103195.47;5065614;28;45464;-64
2021/12/17 12:20:43;;;;;;;;;41.00;35.50;;;;;11.05;66.44;103186.53;5075455;28;45664;-63
2021/12/17 12:23:27;;;;;;;;;40.50;33.25;;;;;11.11;65.89;103189.25;5073682;28;47202;-66
2021/12/17 12:26:01;;;;;;;;;33.00;30.50;;;;;11.10;66.03;103179.44;5075358;28;45759;-63
2021/12/17 12:29:03;;;;;;;;;25.00;23.75;;;;;11.09;65.57;103180.34;5075942;28;45736;-63
2021/12/17 12:31:32;;;;;;;;;32.50;27.50;;;;;11.09;65.73;103183.00;5017755;28;45876;-63
2021/12/17 12:34:00;;;;;;;;;33.25;31.00;;;;;11.10;66.07;103176.75;5070780;28;46314;-64
2021/12/17 12:37:01;;;;;;;;;38.00;32.25;;;;;11.13;66.16;103179.44;5075940;28;45535;-64
2021/12/17 12:39:30;;;;;;;;;30.75;25.00;;;;;11.19;65.56;103177.69;5075461;28;45662;-63
2021/12/17 12:41:56;;;;;;;;;31.75;31.25;;;;;11.20;65.54;103172.34;5075356;28;45534;-63
2021/12/17 12:44:40;;;;;;;;;36.00;32.75;;;;;11.20;65.41;103169.69;5076349;28;46134;-63
2021/12/17 12:47:07;;;;;;;;;20.00;18.50;;;;;11.17;65.57;103158.97;5077604;28;45663;-63
2021/12/17 12:49:49;;;;;;;;;37.75;33.50;;;;;11.15;65.35;103150.06;5082385;27;45532;-64
2021/12/17 12:52:14;;;;;;;;;29.00;26.25;;;;;11.18;65.37;103155.41;5082458;27;45559;-65
2021/12/17 12:54:39;;;;;;;;;31.33;30.33;;;;;11.17;65.41;103158.97;5083062;28;46163;-64
2021/12/17 12:57:05;;;;;;;;;32.00;27.50;;;;;11.16;65.02;103159.88;5068595;28;45646;-64
2021/12/17 12:59:31;;;;;;;;;28.00;24.50;;;;;11.20;65.38;103167.00;5081972;27;45291;-62
2021/12/17 13:01:57;;;;;;;;;24.00;20.00;;;;;11.22;65.08;103159.00;5091253;27;45576;-63
2021/12/17 13:04:23;;;;;;;;;28.75;26.25;;;;;11.21;64.88;103158.09;5088508;27;45575;-63
2021/12/17 13:06:48;;;;;;;;;32.00;28.75;;;;;11.22;65.14;103159.00;5086677;27;45461;-63
2021/12/17 13:09:13;;;;;;;;;29.25;26.50;;;;;11.23;64.97;103164.34;5073538;27;47024;-63
2021/12/17 13:11:45;;;;;;;;;22.00;20.50;;;;;11.19;64.51;103148.28;5087630;27;45654;-64
2021/12/17 13:14:17;;;;;;;;;23.50;19.75;;;;;11.23;64.66;103150.97;5073056;27;46147;-64
2021/12/17 13:16:55;;;;;;;;;27.50;27.25;;;;;11.29;64.67;103152.75;5085146;27;45658;-62
2021/12/17 13:22:26;;;;;;;;;28.25;26.25;;;;;11.31;64.51;103153.69;5084948;27;45651;-62
2021/12/17 13:24:49;;;;;;;;;31.50;28.25;;;;;11.27;64.57;103150.09;5093006;27;45448;-62
2021/12/17 13:27:15;;;;;;;;;25.25;24.75;;;;;11.29;64.62;103144.75;5091239;27;45238;-62
2021/12/17 13:29:44;;;;;;;;;26.50;23.75;;;;;11.34;64.42;103153.66;5070339;27;45169;-63
2021/12/17 13:32:14;;;;;;;;;19.25;16.75;;;;;11.31;64.28;103141.19;5091149;27;45607;-63
2021/12/17 13:34:47;;;;;;;;;22.00;22.00;;;;;11.29;64.32;103142.06;5090370;27;46158;-63
2021/12/17 13:37:15;;;;;;;;;26.25;22.75;;;;;11.32;64.28;103158.13;5088088;27;45549;-62
2021/12/17 13:39:40;;;;;;;;;27.00;23.75;;;;;11.31;63.99;103161.72;5090055;27;45563;-63
2021/12/17 13:42:07;;;;;;;;;24.33;24.33;;;;;11.26;63.73;103153.66;5088686;27;45519;-64
2021/12/17 13:44:34;;;;;;;;;25.25;21.75;;;;;11.26;63.88;103161.69;5082491;27;45469;-64
2021/12/17 13:47:20;;;;;;;;;22.50;17.00;;;;;11.28;63.75;103153.66;5070055;27;45563;-62
2021/12/17 13:49:51;;;;;;;;;27.25;22.75;;;;;11.26;63.55;103150.06;5080956;27;45859;-63
2021/12/17 13:52:20;;;;;;;;;27.75;24.25;;;;;11.30;63.45;103141.19;5080761;27;45525;-64
2021/12/17 13:54:46;;;;;;;;;22.50;20.50;;;;;11.33;63.77;103149.22;5081137;27;46199;-63
2021/12/17 13:57:16;;;;;;;;;23.75;23.25;;;;;11.34;63.33;103136.75;5082325;27;45461;-63
2021/12/17 13:59:42;;;;;;;;;26.50;22.50;;;;;11.28;63.53;103138.50;5084703;27;45438;-63
2021/12/17 14:02:17;;;;;;;;;19.75;18.00;;;;;11.27;63.77;103134.03;5073348;27;45593;-63
2021/12/17 14:05:02;;;;;;;;;24.75;20.75;;;;;11.28;63.71;103135.84;5078730;27;45773;-63